createdAt,value
2023-04-25T00:00:22.444Z,235.90
2023-04-25T00:02:51.526Z,259.63
2023-04-25T00:05:20.565Z,252.70
2023-04-25T00:07:48.386Z,243.17
2023-04-25T00:10:16.075Z,240.97
2023-04-25T00:12:43.830Z,253.70
2023-04-25T00:15:12.360Z,248.63
2023-04-25T00:17:40.361Z,248.63
2023-04-25T00:20:10.922Z,238.27
2023-04-25T00:22:39.135Z,238.43
2023-04-25T00:25:07.934Z,255.27
2023-04-25T00:27:35.532Z,242.23
2023-04-25T00:30:03.576Z,246.83
2023-04-25T00:32:31.263Z,248.97
2023-04-25T00:34:59.541Z,255.10
2023-04-25T00:37:28.750Z,239.37
2023-04-25T00:39:56.951Z,229.83
2023-04-25T00:42:24.695Z,255.87
2023-04-25T00:44:54.839Z,227.47
2023-04-25T00:47:23.539Z,244.70
2023-04-25T00:49:51.479Z,247.67
2023-04-25T00:52:19.223Z,257.73
2023-04-25T00:54:48.477Z,236.37
2023-04-25T00:57:16.434Z,241.47
2023-04-25T00:59:47.717Z,255.57
2023-04-25T01:02:15.805Z,248.73
2023-04-25T01:04:43.759Z,249.57
2023-04-25T01:07:11.916Z,260.93
2023-04-25T01:09:40.195Z,236.67
2023-04-25T01:12:09.493Z,254.33
2023-04-25T01:14:37.218Z,242.90
2023-04-25T01:17:08.637Z,237.67
2023-04-25T01:19:36.993Z,246.87
2023-04-25T01:22:06.410Z,242.03
2023-04-25T01:24:34.668Z,247.40
2023-04-25T01:27:03.258Z,249.27
2023-04-25T01:29:31.964Z,237.07
2023-04-25T01:32:00.967Z,231.50
2023-04-25T01:34:28.668Z,234.23
2023-04-25T01:37:01.592Z,259.63
2023-04-25T01:39:31.497Z,258.10
2023-04-25T01:42:00.073Z,236.87
2023-04-25T01:44:28.498Z,228.60
2023-04-25T01:46:56.515Z,238.33
2023-04-25T01:49:24.648Z,234.93
2023-04-25T01:51:52.542Z,234.87
2023-04-25T01:54:21.177Z,259.83
2023-04-25T01:56:53.683Z,236.87
2023-04-25T01:59:23.318Z,245.47
2023-04-25T02:02:09.497Z,242.07
2023-04-25T02:04:37.878Z,244.70
2023-04-25T02:07:05.860Z,241.93
2023-04-25T02:09:44.160Z,248.83
2023-04-25T02:12:14.630Z,233.33
2023-04-25T02:15:00.824Z,235.57
2023-04-25T02:17:49.784Z,242.33
2023-04-25T02:20:18.106Z,243.77
2023-04-25T02:22:45.762Z,240.37
2023-04-25T02:25:14.028Z,245.30
2023-04-25T02:27:43.739Z,245.57
2023-04-25T02:30:12.076Z,252.07
2023-04-25T02:32:40.567Z,259.23
2023-04-25T02:35:08.849Z,245.87
2023-04-25T02:37:40.869Z,254.67
2023-04-25T02:40:10.018Z,260.97
2023-04-25T02:42:38.255Z,234.50
2023-04-25T02:45:08.291Z,231.73
2023-04-25T02:47:36.064Z,225.10
2023-04-25T02:50:03.872Z,246.83
2023-04-25T02:52:31.889Z,239.03
2023-04-25T02:55:27.875Z,235.47
2023-04-25T02:57:57.233Z,245.23
2023-04-25T03:00:46.560Z,230.63
2023-04-25T03:03:14.723Z,234.80
2023-04-25T03:05:42.638Z,251.30
2023-04-25T03:08:10.631Z,259.83
2023-04-25T03:10:40.135Z,268.67
2023-04-25T03:13:10.544Z,239.17
2023-04-25T03:15:39.765Z,255.37
2023-04-25T03:18:08.872Z,249.97
2023-04-25T03:20:36.616Z,247.33
2023-04-25T03:23:05.183Z,236.20
2023-04-25T03:25:33.399Z,249.60
2023-04-25T03:28:01.100Z,250.03
2023-04-25T03:30:28.881Z,239.47
2023-04-25T03:32:56.650Z,226.37
2023-04-25T03:35:26.199Z,253.73
2023-04-25T03:37:54.314Z,252.40
2023-04-25T03:40:27.332Z,231.13
2023-04-25T03:43:09.019Z,257.23
2023-04-25T03:45:38.273Z,255.00
2023-04-25T03:48:06.417Z,239.83
2023-04-25T03:50:36.585Z,261.93
2023-04-25T03:53:04.500Z,243.00
2023-04-25T03:55:43.572Z,258.83
2023-04-25T03:58:11.511Z,239.67
2023-04-25T04:00:39.555Z,248.10
2023-04-25T04:03:07.710Z,249.57
2023-04-25T04:05:38.247Z,245.67
2023-04-25T04:08:06.224Z,244.13
2023-04-25T04:10:34.332Z,258.03
2023-04-25T04:13:02.047Z,244.73
2023-04-25T04:15:29.703Z,239.23
2023-04-25T04:17:57.601Z,235.20
2023-04-25T04:20:25.349Z,257.53
2023-04-25T04:22:54.999Z,230.27
2023-04-25T04:25:25.440Z,246.47
2023-04-25T04:28:26.270Z,229.93
2023-04-25T04:30:58.880Z,228.13
2023-04-25T04:33:27.553Z,235.53
2023-04-25T04:36:00.132Z,245.37
2023-04-25T04:38:30.970Z,242.83
2023-04-25T04:41:02.278Z,245.10
2023-04-25T04:43:54.238Z,233.40
2023-04-25T04:46:51.490Z,243.73
2023-04-25T04:49:48.912Z,232.03
2023-04-25T04:52:35.006Z,241.53
2023-04-25T04:55:12.402Z,240.83
2023-04-25T04:58:00.446Z,243.33
2023-04-25T05:00:49.482Z,238.03
2023-04-25T05:03:54.983Z,237.23
2023-04-25T05:06:53.302Z,239.10
2023-04-25T05:09:39.260Z,242.17
2023-04-25T05:12:26.853Z,243.23
2023-04-25T05:15:20.850Z,237.27
2023-04-25T05:18:07.331Z,233.13
2023-04-25T05:21:01.291Z,248.47
2023-04-25T05:23:48.818Z,240.13
2023-04-25T05:26:51.631Z,226.47
2023-04-25T05:29:42.614Z,245.80
2023-04-25T05:32:26.990Z,248.30
2023-04-25T05:34:55.074Z,260.43
2023-04-25T05:37:33.685Z,254.63
2023-04-25T05:40:11.175Z,256.03
2023-04-25T05:42:57.460Z,242.17
2023-04-25T05:45:49.446Z,243.10
2023-04-25T05:48:43.297Z,238.57
2023-04-25T05:51:22.402Z,255.87
2023-04-25T05:53:50.276Z,263.13
2023-04-25T05:56:18.228Z,245.43
2023-04-25T05:58:48.149Z,273.27
2023-04-25T06:01:17.242Z,258.80
2023-04-25T06:03:46.241Z,287.80
2023-04-25T06:06:14.105Z,275.90
2023-04-25T06:08:42.383Z,268.43
2023-04-25T06:11:12.662Z,267.50
2023-04-25T06:13:40.316Z,252.83
2023-04-25T06:16:08.820Z,272.43
2023-04-25T06:18:37.850Z,268.93
2023-04-25T06:21:06.068Z,274.97
2023-04-25T06:23:34.686Z,268.90
2023-04-25T06:26:08.362Z,272.20
2023-04-25T06:28:39.130Z,274.83
2023-04-25T06:31:06.894Z,270.07
2023-04-25T06:33:34.632Z,269.07
2023-04-25T06:36:05.790Z,260.50
2023-04-25T06:38:35.685Z,236.03
2023-04-25T06:41:03.684Z,247.90
2023-04-25T06:43:34.657Z,242.30
2023-04-25T06:46:12.171Z,230.67
2023-04-25T06:48:45.193Z,228.50
2023-04-25T06:51:15.049Z,231.37
2023-04-25T06:53:43.718Z,225.77
2023-04-25T06:56:23.103Z,205.87
2023-04-25T06:59:13.942Z,218.30
2023-04-25T07:01:42.597Z,219.90
2023-04-25T07:04:18.262Z,209.93
2023-04-25T07:06:52.395Z,215.87
2023-04-25T07:09:25.300Z,216.40
2023-04-25T07:11:53.566Z,234.00
2023-04-25T07:14:21.220Z,212.67
2023-04-25T07:16:50.540Z,223.03
2023-04-25T07:19:18.312Z,238.47
2023-04-25T07:21:46.386Z,214.40
2023-04-25T07:24:15.500Z,242.43
2023-04-25T07:26:47.119Z,241.97
2023-04-25T07:29:20.571Z,236.93
2023-04-25T07:31:48.234Z,255.93
2023-04-25T07:34:16.566Z,242.80
2023-04-25T07:36:46.073Z,269.57
2023-04-25T07:39:15.420Z,252.63
2023-04-25T07:41:43.370Z,243.90
2023-04-25T07:44:16.198Z,260.13
2023-04-25T07:46:44.272Z,241.77
2023-04-25T07:49:12.787Z,233.47
2023-04-25T07:51:44.186Z,245.50
2023-04-25T07:54:16.866Z,235.87
2023-04-25T07:56:53.412Z,225.48
2023-04-25T07:59:23.610Z,238.73
2023-04-25T08:01:51.466Z,254.18
2023-04-25T08:04:21.244Z,247.38
2023-04-25T08:06:56.345Z,251.27
2023-04-25T08:09:30.287Z,252.55
2023-04-25T08:11:58.589Z,262.87
2023-04-25T08:14:36.305Z,253.20
2023-04-25T08:17:05.290Z,265.42
2023-04-25T08:19:35.526Z,257.92
2023-04-25T08:22:04.486Z,257.63
2023-04-25T08:24:44.830Z,251.05
2023-04-25T08:27:13.336Z,254.15
2023-04-25T08:29:44.182Z,269.15
2023-04-25T08:32:13.008Z,262.10
2023-04-25T08:34:47.925Z,262.15
2023-04-25T08:37:15.974Z,261.30
2023-04-25T08:39:57.700Z,236.40
2023-04-25T08:42:52.468Z,234.80
2023-04-25T08:45:20.654Z,242.82
2023-04-25T08:47:50.625Z,220.57
2023-04-25T08:50:20.218Z,216.20
2023-04-25T08:52:50.454Z,235.32
2023-04-25T08:55:20.395Z,234.27
2023-04-25T08:57:50.224Z,239.80
2023-04-25T09:00:20.283Z,239.07
2023-04-25T09:02:49.364Z,241.55
2023-04-25T09:05:18.369Z,238.05
2023-04-25T09:07:48.560Z,232.77
2023-04-25T09:10:20.169Z,234.20
2023-04-25T09:13:04.493Z,243.25
2023-04-25T09:15:33.262Z,238.10
2023-04-25T09:18:13.352Z,231.27
2023-04-25T09:21:00.825Z,238.05
2023-04-25T09:23:33.881Z,250.55
2023-04-25T09:26:02.925Z,249.07
2023-04-25T09:28:31.073Z,263.02
2023-04-25T09:31:00.988Z,265.67
2023-04-25T09:33:37.212Z,238.05
2023-04-25T09:36:08.446Z,275.27
2023-04-25T09:39:01.770Z,259.27
2023-04-25T09:41:33.528Z,267.38
2023-04-25T09:44:03.971Z,278.02
2023-04-25T09:46:37.344Z,270.55
2023-04-25T09:49:08.790Z,268.08
2023-04-25T09:52:02.311Z,267.67
2023-04-25T09:54:36.370Z,283.08
2023-04-25T09:57:18.200Z,285.42
2023-04-25T09:59:47.712Z,279.83
2023-04-25T10:02:17.450Z,268.30
2023-04-25T10:04:49.358Z,290.75
2023-04-25T10:07:26.961Z,293.77
2023-04-25T10:10:00.591Z,307.30
2023-04-25T10:12:30.038Z,294.15
2023-04-25T10:14:59.639Z,290.52
2023-04-25T10:17:28.735Z,264.10
2023-04-25T10:19:57.334Z,264.80
2023-04-25T10:22:31.397Z,271.25
2023-04-25T10:25:00.223Z,262.98
2023-04-25T10:27:30.896Z,259.00
2023-04-25T10:30:06.185Z,277.40
2023-04-25T10:32:34.579Z,267.73
2023-04-25T10:35:13.269Z,254.90
2023-04-25T10:37:58.109Z,264.23
2023-04-25T10:40:26.177Z,262.95
2023-04-25T10:42:56.056Z,262.27
2023-04-25T10:45:24.209Z,259.25
2023-04-25T10:47:51.969Z,251.50
2023-04-25T10:50:19.665Z,264.25
2023-04-25T10:52:47.324Z,264.52
2023-04-25T10:55:15.003Z,249.63
2023-04-25T10:57:44.874Z,248.52
2023-04-25T11:00:16.996Z,258.60
2023-04-25T11:02:47.992Z,247.88
2023-04-25T11:05:25.818Z,256.13
2023-04-25T11:08:06.380Z,237.55
2023-04-25T11:10:36.469Z,254.38
2023-04-25T11:13:04.691Z,247.10
2023-04-25T11:15:33.790Z,249.45
2023-04-25T11:18:02.247Z,246.10
2023-04-25T11:20:30.585Z,242.23
2023-04-25T11:23:00.948Z,245.65
2023-04-25T11:25:28.739Z,241.30
2023-04-25T11:27:59.386Z,238.15
2023-04-25T11:30:29.668Z,244.02
2023-04-25T11:32:58.810Z,231.10
2023-04-25T11:35:27.196Z,247.75
2023-04-25T11:37:54.837Z,230.70
2023-04-25T11:40:22.745Z,233.90
2023-04-25T11:42:50.854Z,260.02
2023-04-25T11:45:20.773Z,234.88
2023-04-25T11:47:48.925Z,253.88
2023-04-25T11:50:17.885Z,252.27
2023-04-25T11:52:47.393Z,251.45
2023-04-25T11:55:17.092Z,260.27
2023-04-25T11:57:46.455Z,257.75
2023-04-25T12:00:18.672Z,250.88
2023-04-25T12:02:49.024Z,248.07
2023-04-25T12:07:50.052Z,234.75
2023-04-25T12:10:19.411Z,235.45
2023-04-25T12:12:48.838Z,248.43
2023-04-25T12:15:20.180Z,227.15
2023-04-25T12:17:49.187Z,238.30
2023-04-25T12:20:20.625Z,231.38
2023-04-25T12:22:49.999Z,241.80
2023-04-25T12:25:36.402Z,252.85
2023-04-25T12:28:14.378Z,238.90
2023-04-25T12:31:00.130Z,235.07
2023-04-25T12:33:29.456Z,237.27
2023-04-25T12:35:59.398Z,226.98
2023-04-25T12:38:28.807Z,235.98
2023-04-25T12:40:56.788Z,213.80
2023-04-25T12:43:24.494Z,218.15
2023-04-25T12:45:52.879Z,221.65
2023-04-25T12:48:21.430Z,218.35
2023-04-25T12:50:50.676Z,231.27
2023-04-25T12:53:20.405Z,212.15
2023-04-25T12:55:49.118Z,231.13
2023-04-25T12:58:18.285Z,227.38
2023-04-25T13:00:46.657Z,222.77
2023-04-25T13:03:14.511Z,234.65
2023-04-25T13:05:42.633Z,225.02
2023-04-25T13:08:10.277Z,222.52
2023-04-25T13:10:40.252Z,218.35
2023-04-25T13:13:08.184Z,216.38
2023-04-25T13:15:36.222Z,218.52
2023-04-25T13:18:04.952Z,233.38
2023-04-25T13:20:33.316Z,215.52
2023-04-25T13:23:02.731Z,213.52
2023-04-25T13:25:30.814Z,205.88
2023-04-25T13:27:59.792Z,217.70
2023-04-25T13:30:27.568Z,209.90
2023-04-25T13:32:57.265Z,213.00
2023-04-25T13:35:25.159Z,202.63
2023-04-25T13:37:52.829Z,206.07
2023-04-25T13:40:21.327Z,218.27
2023-04-25T13:42:50.163Z,213.32
2023-04-25T13:45:19.356Z,212.80
2023-04-25T13:47:47.196Z,205.18
2023-04-25T13:50:15.666Z,210.77
2023-04-25T13:52:43.488Z,203.77
2023-04-25T13:55:11.831Z,190.25
2023-04-25T13:57:41.284Z,203.50
2023-04-25T14:00:10.898Z,191.80
2023-04-25T14:02:40.578Z,210.65
2023-04-25T14:05:10.146Z,200.38
2023-04-25T14:07:38.396Z,196.95
2023-04-25T14:10:07.874Z,201.88
2023-04-25T14:12:36.065Z,194.32
2023-04-25T14:15:04.179Z,207.70
2023-04-25T14:17:31.930Z,201.25
2023-04-25T14:20:01.056Z,193.65
2023-04-25T14:22:28.685Z,195.38
2023-04-25T14:24:56.749Z,206.27
2023-04-25T14:27:24.950Z,210.70
2023-04-25T14:29:53.963Z,206.80
2023-04-25T14:32:22.037Z,205.57
2023-04-25T14:34:49.736Z,211.38
2023-04-25T14:37:18.764Z,207.98
2023-04-25T14:39:46.577Z,198.65
2023-04-25T14:42:14.252Z,205.85
2023-04-25T14:44:42.039Z,199.18
2023-04-25T14:47:10.361Z,202.88
2023-04-25T14:49:38.034Z,208.55
2023-04-25T14:52:06.069Z,192.27
2023-04-25T14:54:35.442Z,206.52
2023-04-25T14:57:03.303Z,203.93
2023-04-25T14:59:31.003Z,206.90
2023-04-25T15:01:59.877Z,200.00
2023-04-25T15:04:27.970Z,200.70
2023-04-25T15:06:56.384Z,214.77
2023-04-25T15:09:24.996Z,212.73
2023-04-25T15:11:54.199Z,201.18
2023-04-25T15:14:21.890Z,205.50
2023-04-25T15:16:49.644Z,196.68
2023-04-25T15:19:17.548Z,193.95
2023-04-25T15:21:45.200Z,203.10
2023-04-25T15:24:15.959Z,195.05
2023-04-25T15:26:43.640Z,213.18
2023-04-25T15:29:12.726Z,208.43
2023-04-25T15:31:40.490Z,203.50
2023-04-25T15:34:08.243Z,196.27
2023-04-25T15:36:35.992Z,207.27
2023-04-25T15:39:03.737Z,188.32
2023-04-25T15:41:31.402Z,191.68
2023-04-25T15:44:01.510Z,191.98
2023-04-25T15:46:31.956Z,188.40
2023-04-25T15:48:59.741Z,181.32
2023-04-25T15:51:28.084Z,187.55
2023-04-25T15:53:56.352Z,185.98
2023-04-25T15:56:24.510Z,178.52
2023-04-25T15:58:52.540Z,182.32
2023-04-25T16:01:24.084Z,163.27
2023-04-25T16:03:53.458Z,187.57
2023-04-25T16:06:22.220Z,170.38
2023-04-25T16:08:49.898Z,185.52
2023-04-25T16:11:17.627Z,171.23
2023-04-25T16:13:45.781Z,175.90
2023-04-25T16:16:13.579Z,172.52
2023-04-25T16:18:41.337Z,177.32
2023-04-25T16:21:11.605Z,167.13
2023-04-25T16:23:39.312Z,176.57
2023-04-25T16:26:08.758Z,165.13
2023-04-25T16:28:36.620Z,167.52
2023-04-25T16:31:04.361Z,154.68
2023-04-25T16:33:33.088Z,167.45
2023-04-25T16:36:00.766Z,171.00
2023-04-25T16:38:29.765Z,161.80
2023-04-25T16:40:57.447Z,164.43
2023-04-25T16:43:25.141Z,174.30
2023-04-25T16:45:53.103Z,178.73
2023-04-25T16:48:24.160Z,160.45
2023-04-25T16:50:52.733Z,168.95
2023-04-25T16:53:21.984Z,179.60
2023-04-25T16:55:51.348Z,182.82
2023-04-25T16:58:19.058Z,178.00
2023-04-25T17:00:47.245Z,175.68
2023-04-25T17:03:15.013Z,185.00
2023-04-25T17:05:42.785Z,189.13
2023-04-25T17:08:10.480Z,184.73
2023-04-25T17:10:38.207Z,197.73
2023-04-25T17:13:07.703Z,175.98
2023-04-25T17:15:35.903Z,182.52
2023-04-25T17:18:03.622Z,174.07
2023-04-25T17:20:31.429Z,181.05
2023-04-25T17:22:59.870Z,206.18
2023-04-25T17:25:27.856Z,196.15
2023-04-25T17:27:55.725Z,178.50
2023-04-25T17:30:24.778Z,170.52
2023-04-25T17:32:52.487Z,172.35
2023-04-25T17:35:20.290Z,180.35
2023-04-25T17:37:48.575Z,170.02
2023-04-25T17:40:16.212Z,167.05
2023-04-25T17:42:44.311Z,185.13
2023-04-25T17:45:12.940Z,172.30
2023-04-25T17:47:42.255Z,169.02
2023-04-25T17:50:10.414Z,186.77
2023-04-25T17:52:38.657Z,193.43
2023-04-25T17:55:07.672Z,189.35
2023-04-25T17:57:35.468Z,207.27
2023-04-25T18:00:05.798Z,208.75
2023-04-25T18:02:40.045Z,213.30
2023-04-25T18:05:10.713Z,228.55
2023-04-25T18:07:38.607Z,217.88
2023-04-25T18:10:07.422Z,227.15
2023-04-25T18:12:35.868Z,209.68
2023-04-25T18:15:06.724Z,213.20
2023-04-25T18:17:39.679Z,237.35
2023-04-25T18:20:15.647Z,238.32
2023-04-25T18:22:44.378Z,225.38
2023-04-25T18:25:13.641Z,228.03
2023-04-25T18:27:42.292Z,225.43
2023-04-25T18:30:12.165Z,236.43
2023-04-25T18:32:39.976Z,227.93
2023-04-25T18:35:11.325Z,230.77
2023-04-25T18:37:40.994Z,225.10
2023-04-25T18:40:13.759Z,226.67
2023-04-25T18:42:41.543Z,240.47
2023-04-25T18:45:10.262Z,225.43
2023-04-25T18:47:37.953Z,231.30
2023-04-25T18:50:06.891Z,222.27
2023-04-25T18:52:36.320Z,245.37
2023-04-25T18:55:04.736Z,227.70
2023-04-25T18:57:32.961Z,228.77
2023-04-25T19:00:05.089Z,246.77
2023-04-25T19:02:33.096Z,211.97
2023-04-25T19:05:01.370Z,235.93
2023-04-25T19:07:30.880Z,206.00
2023-04-25T19:10:00.346Z,206.07
2023-04-25T19:12:27.961Z,200.67
2023-04-25T19:14:56.151Z,210.60
2023-04-25T19:17:24.032Z,210.13
2023-04-25T19:19:51.735Z,194.73
2023-04-25T19:22:19.461Z,217.60
2023-04-25T19:24:50.566Z,197.70
2023-04-25T19:27:24.710Z,201.93
2023-04-25T19:29:58.072Z,200.93
2023-04-25T19:32:26.337Z,212.93
2023-04-25T19:34:54.214Z,195.57
2023-04-25T19:37:21.892Z,202.13
2023-04-25T19:39:49.541Z,198.40
2023-04-25T19:42:19.121Z,207.20
2023-04-25T19:44:48.481Z,201.83
2023-04-25T19:47:16.360Z,195.90
2023-04-25T19:49:44.035Z,199.77
2023-04-25T19:52:15.048Z,197.43
2023-04-25T19:54:42.921Z,199.80
2023-04-25T19:57:10.582Z,184.40
2023-04-25T19:59:38.450Z,183.30
2023-04-25T20:02:09.028Z,193.77
2023-04-25T20:04:37.012Z,189.40
2023-04-25T20:07:04.720Z,185.10
2023-04-25T20:09:32.758Z,199.10
2023-04-25T20:12:00.455Z,183.97
2023-04-25T20:14:28.164Z,184.80
2023-04-25T20:16:55.914Z,179.13
2023-04-25T20:19:24.952Z,183.63
2023-04-25T20:21:52.644Z,179.23
2023-04-25T20:24:20.325Z,183.43
2023-04-25T20:26:47.950Z,188.00
2023-04-25T20:29:15.596Z,210.80
2023-04-25T20:31:43.956Z,207.20
2023-04-25T20:34:11.694Z,196.47
2023-04-25T20:36:40.816Z,187.67
2023-04-25T20:39:08.512Z,195.07
2023-04-25T20:41:37.577Z,192.50
2023-04-25T20:44:07.459Z,204.27
2023-04-25T20:46:36.237Z,201.80
2023-04-25T20:49:05.320Z,204.20
2023-04-25T20:51:33.503Z,204.93
2023-04-25T20:54:03.754Z,198.97
2023-04-25T20:56:32.761Z,204.63
2023-04-25T20:59:00.703Z,214.37
2023-04-25T21:01:28.870Z,199.37
2023-04-25T21:03:56.674Z,208.80
2023-04-25T21:06:24.639Z,202.03
2023-04-25T21:08:52.875Z,202.40
2023-04-25T21:11:23.221Z,201.67
2023-04-25T21:13:51.674Z,200.90
2023-04-25T21:16:19.575Z,197.10
2023-04-25T21:18:47.911Z,213.60
2023-04-25T21:21:15.857Z,200.60
2023-04-25T21:23:43.542Z,189.63
2023-04-25T21:26:11.400Z,197.70
2023-04-25T21:28:40.389Z,202.93
2023-04-25T21:31:08.176Z,192.90
2023-04-25T21:33:35.975Z,201.27
2023-04-25T21:36:03.827Z,179.90
2023-04-25T21:38:31.593Z,190.77
2023-04-25T21:40:59.331Z,169.60
2023-04-25T21:43:26.977Z,183.13
2023-04-25T21:46:11.489Z,179.57
2023-04-25T21:48:42.844Z,177.50
2023-04-25T21:51:10.581Z,179.73
2023-04-25T21:53:38.232Z,178.27
2023-04-25T21:56:06.219Z,177.40
2023-04-25T21:58:33.969Z,174.60
2023-04-25T22:01:03.470Z,192.47
2023-04-25T22:03:31.350Z,180.90
2023-04-25T22:05:59.409Z,180.27
2023-04-25T22:08:27.048Z,179.23
2023-04-25T22:15:08.665Z,151.10
2023-04-25T22:17:38.714Z,163.30
2023-04-25T22:20:10.387Z,170.10
2023-04-25T22:22:38.017Z,170.27
2023-04-25T22:25:07.230Z,170.43
2023-04-25T22:27:35.076Z,154.23
2023-04-25T22:30:03.303Z,176.93
2023-04-25T22:32:31.430Z,170.50
2023-04-25T22:35:00.359Z,186.83
2023-04-25T22:37:28.748Z,167.93
2023-04-25T22:39:56.406Z,183.10
2023-04-25T22:42:24.123Z,177.07
2023-04-25T22:44:52.052Z,179.13
2023-04-25T22:47:21.577Z,178.30
2023-04-25T22:49:49.574Z,178.57
2023-04-25T22:52:18.536Z,181.80
2023-04-25T22:54:46.403Z,182.53
2023-04-25T22:57:14.168Z,178.67
2023-04-25T22:59:41.783Z,191.13
2023-04-25T23:02:09.403Z,180.77
2023-04-25T23:04:37.847Z,181.70
2023-04-25T23:07:05.992Z,181.57
2023-04-25T23:09:34.956Z,185.83
2023-04-25T23:12:02.552Z,194.83
2023-04-25T23:14:30.179Z,173.53
2023-04-25T23:16:57.776Z,192.50
2023-04-25T23:19:26.487Z,178.60
2023-04-25T23:21:54.080Z,165.53
2023-04-25T23:24:21.777Z,174.93
2023-04-25T23:26:50.782Z,163.97
2023-04-25T23:29:18.386Z,168.10
2023-04-25T23:31:46.026Z,177.37
2023-04-25T23:34:13.893Z,181.80
2023-04-25T23:36:41.706Z,157.27
2023-04-25T23:39:10.355Z,180.13
2023-04-25T23:41:37.924Z,169.53
2023-04-25T23:44:08.779Z,153.67
2023-04-25T23:46:36.674Z,169.70
2023-04-25T23:49:04.501Z,153.10
2023-04-25T23:51:32.326Z,155.93
2023-04-25T23:54:00.182Z,156.57
2023-04-25T23:56:27.827Z,164.07
2023-04-25T23:58:55.865Z,165.10
